sensor_id;sensor_type;location;lat;lon;timestamp;temperature;humidity
17146;DHT22;8688;54.444;18.444;2023-07-20T00:01:07;11.60;99.90
17146;DHT22;8688;54.444;18.444;2023-07-20T00:03:36;11.60;99.90
17146;DHT22;8688;54.444;18.444;2023-07-20T00:06:03;11.50;99.90
17146;DHT22;8688;54.444;18.444;2023-07-20T00:08:32;11.60;99.90
17146;DHT22;8688;54.444;18.444;2023-07-20T00:10:59;11.60;99.90
17146;DHT22;8688;54.444;18.444;2023-07-20T00:13:29;11.60;99.90
17146;DHT22;8688;54.444;18.444;2023-07-20T00:15:57;11.60;99.90
17146;DHT22;8688;54.444;18.444;2023-07-20T00:18:25;11.60;99.90
17146;DHT22;8688;54.444;18.444;2023-07-20T00:20:54;11.60;99.90
17146;DHT22;8688;54.444;18.444;2023-07-20T00:23:22;11.60;99.90
17146;DHT22;8688;54.444;18.444;2023-07-20T00:25:50;11.50;99.90
17146;DHT22;8688;54.444;18.444;2023-07-20T00:28:18;11.50;99.90
17146;DHT22;8688;54.444;18.444;2023-07-20T00:30:47;11.50;99.90
17146;DHT22;8688;54.444;18.444;2023-07-20T00:33:17;11.50;99.90
17146;DHT22;8688;54.444;18.444;2023-07-20T00:35:45;11.50;99.90
17146;DHT22;8688;54.444;18.444;2023-07-20T00:38:13;11.50;99.90
17146;DHT22;8688;54.444;18.444;2023-07-20T00:40:41;11.50;99.90
17146;DHT22;8688;54.444;18.444;2023-07-20T00:43:09;11.50;99.90
17146;DHT22;8688;54.444;18.444;2023-07-20T00:45:37;11.40;99.90
17146;DHT22;8688;54.444;18.444;2023-07-20T00:48:07;11.40;99.90
17146;DHT22;8688;54.444;18.444;2023-07-20T00:50:35;11.50;99.90
17146;DHT22;8688;54.444;18.444;2023-07-20T00:53:04;11.50;99.90
17146;DHT22;8688;54.444;18.444;2023-07-20T00:55:32;11.40;99.90
17146;DHT22;8688;54.444;18.444;2023-07-20T00:58:01;11.30;99.90
17146;DHT22;8688;54.444;18.444;2023-07-20T01:00:28;11.30;99.90
17146;DHT22;8688;54.444;18.444;2023-07-20T01:02:56;11.30;99.90
17146;DHT22;8688;54.444;18.444;2023-07-20T01:05:30;11.30;99.90
17146;DHT22;8688;54.444;18.444;2023-07-20T01:08:04;11.30;99.90
17146;DHT22;8688;54.444;18.444;2023-07-20T01:10:39;11.30;99.90
17146;DHT22;8688;54.444;18.444;2023-07-20T01:13:10;11.30;99.90
17146;DHT22;8688;54.444;18.444;2023-07-20T01:15:37;11.30;99.90
17146;DHT22;8688;54.444;18.444;2023-07-20T01:18:05;11.30;99.90
17146;DHT22;8688;54.444;18.444;2023-07-20T01:20:35;11.30;99.90
17146;DHT22;8688;54.444;18.444;2023-07-20T01:23:28;11.20;99.90
17146;DHT22;8688;54.444;18.444;2023-07-20T01:26:16;11.20;99.90
17146;DHT22;8688;54.444;18.444;2023-07-20T01:29:11;11.30;99.90
17146;DHT22;8688;54.444;18.444;2023-07-20T01:31:41;11.30;99.90
17146;DHT22;8688;54.444;18.444;2023-07-20T01:34:12;11.30;99.90
17146;DHT22;8688;54.444;18.444;2023-07-20T01:36:42;11.30;99.90
17146;DHT22;8688;54.444;18.444;2023-07-20T01:39:14;11.30;99.90
17146;DHT22;8688;54.444;18.444;2023-07-20T01:41:46;11.30;99.90
17146;DHT22;8688;54.444;18.444;2023-07-20T01:44:14;11.30;99.90
17146;DHT22;8688;54.444;18.444;2023-07-20T01:46:43;11.40;99.90
17146;DHT22;8688;54.444;18.444;2023-07-20T01:49:11;11.40;99.90
17146;DHT22;8688;54.444;18.444;2023-07-20T01:51:39;11.40;99.90
17146;DHT22;8688;54.444;18.444;2023-07-20T01:54:06;11.40;99.90
17146;DHT22;8688;54.444;18.444;2023-07-20T01:56:34;11.40;99.90
17146;DHT22;8688;54.444;18.444;2023-07-20T01:59:01;11.40;99.90
17146;DHT22;8688;54.444;18.444;2023-07-20T02:01:29;11.40;99.90
17146;DHT22;8688;54.444;18.444;2023-07-20T02:03:58;11.40;99.90
17146;DHT22;8688;54.444;18.444;2023-07-20T02:06:26;11.30;99.90
17146;DHT22;8688;54.444;18.444;2023-07-20T02:08:53;11.30;99.90
17146;DHT22;8688;54.444;18.444;2023-07-20T02:11:21;11.30;99.90
17146;DHT22;8688;54.444;18.444;2023-07-20T02:13:48;11.30;99.90
17146;DHT22;8688;54.444;18.444;2023-07-20T02:16:16;11.30;99.90
17146;DHT22;8688;54.444;18.444;2023-07-20T02:18:43;11.30;99.90
17146;DHT22;8688;54.444;18.444;2023-07-20T02:21:12;11.30;99.90
17146;DHT22;8688;54.444;18.444;2023-07-20T02:23:40;11.30;99.90
17146;DHT22;8688;54.444;18.444;2023-07-20T02:26:08;11.30;99.90
17146;DHT22;8688;54.444;18.444;2023-07-20T02:28:35;11.30;99.90
17146;DHT22;8688;54.444;18.444;2023-07-20T02:31:03;11.30;99.90
17146;DHT22;8688;54.444;18.444;2023-07-20T02:33:30;11.30;99.90
17146;DHT22;8688;54.444;18.444;2023-07-20T02:35:58;11.40;99.90
17146;DHT22;8688;54.444;18.444;2023-07-20T02:38:27;11.40;99.90
17146;DHT22;8688;54.444;18.444;2023-07-20T02:40:55;11.40;99.90
17146;DHT22;8688;54.444;18.444;2023-07-20T02:43:23;11.40;99.90
17146;DHT22;8688;54.444;18.444;2023-07-20T02:45:51;11.40;99.90
17146;DHT22;8688;54.444;18.444;2023-07-20T02:48:18;11.40;99.90
17146;DHT22;8688;54.444;18.444;2023-07-20T02:50:46;11.30;99.90
17146;DHT22;8688;54.444;18.444;2023-07-20T02:53:14;11.30;99.90
17146;DHT22;8688;54.444;18.444;2023-07-20T02:55:43;11.20;99.90
17146;DHT22;8688;54.444;18.444;2023-07-20T02:58:11;11.20;99.90
17146;DHT22;8688;54.444;18.444;2023-07-20T03:00:39;11.20;99.90
17146;DHT22;8688;54.444;18.444;2023-07-20T03:03:06;11.20;99.90
17146;DHT22;8688;54.444;18.444;2023-07-20T03:05:35;11.20;99.90
17146;DHT22;8688;54.444;18.444;2023-07-20T03:08:05;11.20;99.90
17146;DHT22;8688;54.444;18.444;2023-07-20T03:10:38;11.20;99.90
17146;DHT22;8688;54.444;18.444;2023-07-20T03:13:10;11.20;99.90
17146;DHT22;8688;54.444;18.444;2023-07-20T03:15:38;11.20;99.90
17146;DHT22;8688;54.444;18.444;2023-07-20T03:18:06;11.20;99.90
17146;DHT22;8688;54.444;18.444;2023-07-20T03:20:35;11.20;99.90
17146;DHT22;8688;54.444;18.444;2023-07-20T03:23:03;11.20;99.90
17146;DHT22;8688;54.444;18.444;2023-07-20T03:25:31;11.20;99.90
17146;DHT22;8688;54.444;18.444;2023-07-20T03:27:59;11.10;99.90
17146;DHT22;8688;54.444;18.444;2023-07-20T03:30:28;11.10;99.90
17146;DHT22;8688;54.444;18.444;2023-07-20T03:32:56;11.20;99.90
17146;DHT22;8688;54.444;18.444;2023-07-20T03:35:24;11.30;99.90
17146;DHT22;8688;54.444;18.444;2023-07-20T03:37:52;11.30;99.90
17146;DHT22;8688;54.444;18.444;2023-07-20T03:40:19;11.40;99.90
17146;DHT22;8688;54.444;18.444;2023-07-20T03:42:47;11.40;99.90
17146;DHT22;8688;54.444;18.444;2023-07-20T03:45:15;11.50;99.90
17146;DHT22;8688;54.444;18.444;2023-07-20T03:47:44;11.50;99.90
17146;DHT22;8688;54.444;18.444;2023-07-20T03:50:14;11.60;99.90
17146;DHT22;8688;54.444;18.444;2023-07-20T03:52:42;11.70;99.90
17146;DHT22;8688;54.444;18.444;2023-07-20T03:55:10;11.90;99.90
17146;DHT22;8688;54.444;18.444;2023-07-20T03:57:38;12.00;99.90
17146;DHT22;8688;54.444;18.444;2023-07-20T04:00:07;12.10;99.90
17146;DHT22;8688;54.444;18.444;2023-07-20T04:02:35;12.20;99.90
17146;DHT22;8688;54.444;18.444;2023-07-20T04:05:04;12.40;99.90
17146;DHT22;8688;54.444;18.444;2023-07-20T04:07:33;12.40;99.90
17146;DHT22;8688;54.444;18.444;2023-07-20T04:10:00;12.50;99.90
17146;DHT22;8688;54.444;18.444;2023-07-20T04:12:28;12.60;99.90
17146;DHT22;8688;54.444;18.444;2023-07-20T04:14:55;12.70;99.90
17146;DHT22;8688;54.444;18.444;2023-07-20T04:17:23;12.80;99.90
17146;DHT22;8688;54.444;18.444;2023-07-20T04:19:50;12.90;99.90
17146;DHT22;8688;54.444;18.444;2023-07-20T04:22:19;13.00;99.90
17146;DHT22;8688;54.444;18.444;2023-07-20T04:24:47;13.10;99.90
17146;DHT22;8688;54.444;18.444;2023-07-20T04:27:15;13.10;99.90
17146;DHT22;8688;54.444;18.444;2023-07-20T04:29:43;13.20;99.90
17146;DHT22;8688;54.444;18.444;2023-07-20T04:32:10;13.20;99.90
17146;DHT22;8688;54.444;18.444;2023-07-20T04:34:38;13.30;99.90
17146;DHT22;8688;54.444;18.444;2023-07-20T04:37:05;13.30;99.90
17146;DHT22;8688;54.444;18.444;2023-07-20T04:39:35;13.40;99.90
17146;DHT22;8688;54.444;18.444;2023-07-20T04:42:03;13.50;99.90
17146;DHT22;8688;54.444;18.444;2023-07-20T04:44:31;13.60;99.90
17146;DHT22;8688;54.444;18.444;2023-07-20T04:46:59;13.60;99.90
17146;DHT22;8688;54.444;18.444;2023-07-20T04:49:27;13.60;99.90
17146;DHT22;8688;54.444;18.444;2023-07-20T04:51:54;13.70;99.90
17146;DHT22;8688;54.444;18.444;2023-07-20T04:54:22;13.70;99.90
17146;DHT22;8688;54.444;18.444;2023-07-20T04:56:51;13.70;99.90
17146;DHT22;8688;54.444;18.444;2023-07-20T04:59:18;13.70;99.90
17146;DHT22;8688;54.444;18.444;2023-07-20T05:01:46;13.70;99.90
17146;DHT22;8688;54.444;18.444;2023-07-20T05:04:14;13.70;99.90
17146;DHT22;8688;54.444;18.444;2023-07-20T05:06:41;13.70;99.90
17146;DHT22;8688;54.444;18.444;2023-07-20T05:09:09;13.70;99.90
17146;DHT22;8688;54.444;18.444;2023-07-20T05:11:37;13.80;99.90
17146;DHT22;8688;54.444;18.444;2023-07-20T05:14:06;13.90;99.90
17146;DHT22;8688;54.444;18.444;2023-07-20T05:16:35;14.00;99.90
17146;DHT22;8688;54.444;18.444;2023-07-20T05:19:03;14.10;99.90
17146;DHT22;8688;54.444;18.444;2023-07-20T05:21:31;14.20;99.90
17146;DHT22;8688;54.444;18.444;2023-07-20T05:23:58;14.30;99.90
17146;DHT22;8688;54.444;18.444;2023-07-20T05:26:26;14.40;99.90
17146;DHT22;8688;54.444;18.444;2023-07-20T05:28:57;14.50;99.90
17146;DHT22;8688;54.444;18.444;2023-07-20T05:31:27;14.50;99.90
17146;DHT22;8688;54.444;18.444;2023-07-20T05:33:57;14.50;99.90
17146;DHT22;8688;54.444;18.444;2023-07-20T05:36:26;14.50;99.90
17146;DHT22;8688;54.444;18.444;2023-07-20T05:38:54;14.40;99.90
17146;DHT22;8688;54.444;18.444;2023-07-20T05:41:22;14.50;99.90
17146;DHT22;8688;54.444;18.444;2023-07-20T05:43:51;14.60;99.90
17146;DHT22;8688;54.444;18.444;2023-07-20T05:46:19;14.70;99.90
17146;DHT22;8688;54.444;18.444;2023-07-20T05:48:49;14.80;99.90
17146;DHT22;8688;54.444;18.444;2023-07-20T05:51:17;15.00;99.90
17146;DHT22;8688;54.444;18.444;2023-07-20T05:53:46;15.00;98.10
17146;DHT22;8688;54.444;18.444;2023-07-20T05:56:14;15.00;89.50
17146;DHT22;8688;54.444;18.444;2023-07-20T05:58:43;15.10;95.70
17146;DHT22;8688;54.444;18.444;2023-07-20T06:01:16;15.10;99.90
17146;DHT22;8688;54.444;18.444;2023-07-20T06:03:45;15.10;99.90
17146;DHT22;8688;54.444;18.444;2023-07-20T06:06:16;15.10;99.90
17146;DHT22;8688;54.444;18.444;2023-07-20T06:08:51;15.10;99.90
17146;DHT22;8688;54.444;18.444;2023-07-20T06:11:23;15.20;99.90
17146;DHT22;8688;54.444;18.444;2023-07-20T06:13:51;15.20;99.90
17146;DHT22;8688;54.444;18.444;2023-07-20T06:16:27;15.10;89.50
17146;DHT22;8688;54.444;18.444;2023-07-20T06:18:59;15.20;72.60
17146;DHT22;8688;54.444;18.444;2023-07-20T06:21:32;15.10;35.90
17146;DHT22;8688;54.444;18.444;2023-07-20T06:24:01;15.10;93.70
17146;DHT22;8688;54.444;18.444;2023-07-20T06:26:29;15.00;9.80
17146;DHT22;8688;54.444;18.444;2023-07-20T06:29:09;14.90;21.60
17146;DHT22;8688;54.444;18.444;2023-07-20T06:31:38;14.80;21.30
17146;DHT22;8688;54.444;18.444;2023-07-20T06:34:06;14.80;29.50
17146;DHT22;8688;54.444;18.444;2023-07-20T06:36:37;14.90;51.40
17146;DHT22;8688;54.444;18.444;2023-07-20T06:39:05;15.00;41.60
17146;DHT22;8688;54.444;18.444;2023-07-20T06:41:34;15.00;7.50
17146;DHT22;8688;54.444;18.444;2023-07-20T06:44:11;15.00;1.00
17146;DHT22;8688;54.444;18.444;2023-07-20T06:46:39;15.00;2.20
17146;DHT22;8688;54.444;18.444;2023-07-20T06:49:10;14.90;1.00
17146;DHT22;8688;54.444;18.444;2023-07-20T06:51:57;14.90;1.00
17146;DHT22;8688;54.444;18.444;2023-07-20T06:54:31;14.90;1.00
17146;DHT22;8688;54.444;18.444;2023-07-20T06:57:00;14.80;1.00
17146;DHT22;8688;54.444;18.444;2023-07-20T06:59:30;14.80;17.70
17146;DHT22;8688;54.444;18.444;2023-07-20T07:01:58;14.60;1.00
17146;DHT22;8688;54.444;18.444;2023-07-20T07:04:29;14.60;26.70
17146;DHT22;8688;54.444;18.444;2023-07-20T07:07:02;14.60;50.00
17146;DHT22;8688;54.444;18.444;2023-07-20T07:09:33;14.60;99.90
17146;DHT22;8688;54.444;18.444;2023-07-20T07:12:02;14.80;99.90
17146;DHT22;8688;54.444;18.444;2023-07-20T07:14:30;15.00;99.90
17146;DHT22;8688;54.444;18.444;2023-07-20T07:16:59;15.10;99.90
17146;DHT22;8688;54.444;18.444;2023-07-20T07:19:27;15.20;99.90
17146;DHT22;8688;54.444;18.444;2023-07-20T07:21:55;15.20;91.30
17146;DHT22;8688;54.444;18.444;2023-07-20T07:24:26;15.30;99.90
17146;DHT22;8688;54.444;18.444;2023-07-20T07:27:02;15.30;91.50
17146;DHT22;8688;54.444;18.444;2023-07-20T07:29:31;15.20;54.60
17146;DHT22;8688;54.444;18.444;2023-07-20T07:31:59;15.20;99.90
17146;DHT22;8688;54.444;18.444;2023-07-20T07:34:30;15.20;99.90
17146;DHT22;8688;54.444;18.444;2023-07-20T07:37:04;15.20;99.90
17146;DHT22;8688;54.444;18.444;2023-07-20T07:39:37;15.20;70.90
17146;DHT22;8688;54.444;18.444;2023-07-20T07:42:06;15.30;36.00
17146;DHT22;8688;54.444;18.444;2023-07-20T07:44:38;15.40;6.40
17146;DHT22;8688;54.444;18.444;2023-07-20T07:47:09;15.50;1.00
17146;DHT22;8688;54.444;18.444;2023-07-20T07:49:39;15.50;1.00
17146;DHT22;8688;54.444;18.444;2023-07-20T07:52:13;15.70;1.00
17146;DHT22;8688;54.444;18.444;2023-07-20T07:54:43;15.80;1.00
17146;DHT22;8688;54.444;18.444;2023-07-20T07:57:16;15.90;1.00
17146;DHT22;8688;54.444;18.444;2023-07-20T07:59:44;16.00;1.00
17146;DHT22;8688;54.444;18.444;2023-07-20T08:02:13;16.10;99.90
17146;DHT22;8688;54.444;18.444;2023-07-20T08:04:42;16.20;1.00
17146;DHT22;8688;54.444;18.444;2023-07-20T08:07:10;16.40;1.00
17146;DHT22;8688;54.444;18.444;2023-07-20T08:09:43;16.60;1.00
17146;DHT22;8688;54.444;18.444;2023-07-20T08:12:11;16.90;1.00
17146;DHT22;8688;54.444;18.444;2023-07-20T08:14:40;17.00;99.90
17146;DHT22;8688;54.444;18.444;2023-07-20T08:17:08;17.10;99.90
17146;DHT22;8688;54.444;18.444;2023-07-20T08:19:38;17.00;1.00
17146;DHT22;8688;54.444;18.444;2023-07-20T08:22:07;17.00;99.90
17146;DHT22;8688;54.444;18.444;2023-07-20T08:24:42;16.90;1.00
17146;DHT22;8688;54.444;18.444;2023-07-20T08:27:10;16.80;99.90
17146;DHT22;8688;54.444;18.444;2023-07-20T08:29:38;16.70;99.90
17146;DHT22;8688;54.444;18.444;2023-07-20T08:32:08;16.70;1.00
17146;DHT22;8688;54.444;18.444;2023-07-20T08:34:41;16.80;1.00
17146;DHT22;8688;54.444;18.444;2023-07-20T08:37:10;16.80;1.00
17146;DHT22;8688;54.444;18.444;2023-07-20T08:39:38;16.80;1.00
17146;DHT22;8688;54.444;18.444;2023-07-20T08:42:10;16.90;1.00
17146;DHT22;8688;54.444;18.444;2023-07-20T08:44:45;17.00;1.00
17146;DHT22;8688;54.444;18.444;2023-07-20T08:47:16;17.10;1.00
17146;DHT22;8688;54.444;18.444;2023-07-20T08:49:48;17.20;1.00
17146;DHT22;8688;54.444;18.444;2023-07-20T08:52:17;17.10;1.00
17146;DHT22;8688;54.444;18.444;2023-07-20T08:54:48;17.10;1.00
17146;DHT22;8688;54.444;18.444;2023-07-20T08:57:21;17.20;1.00
17146;DHT22;8688;54.444;18.444;2023-07-20T08:59:51;17.50;1.00
17146;DHT22;8688;54.444;18.444;2023-07-20T09:02:22;17.80;99.90
17146;DHT22;8688;54.444;18.444;2023-07-20T09:04:57;17.90;5.80
17146;DHT22;8688;54.444;18.444;2023-07-20T09:07:34;18.00;1.00
17146;DHT22;8688;54.444;18.444;2023-07-20T09:10:08;18.40;1.00
17146;DHT22;8688;54.444;18.444;2023-07-20T09:12:42;18.60;1.00
17146;DHT22;8688;54.444;18.444;2023-07-20T09:15:14;18.80;1.00
17146;DHT22;8688;54.444;18.444;2023-07-20T09:17:46;18.60;80.50
17146;DHT22;8688;54.444;18.444;2023-07-20T09:20:16;18.50;1.00
17146;DHT22;8688;54.444;18.444;2023-07-20T09:22:46;18.50;1.00
17146;DHT22;8688;54.444;18.444;2023-07-20T09:25:17;18.50;1.00
17146;DHT22;8688;54.444;18.444;2023-07-20T09:28:04;18.50;1.00
17146;DHT22;8688;54.444;18.444;2023-07-20T09:30:35;18.40;1.00
17146;DHT22;8688;54.444;18.444;2023-07-20T09:33:18;18.60;99.90
17146;DHT22;8688;54.444;18.444;2023-07-20T09:35:50;18.70;99.90
17146;DHT22;8688;54.444;18.444;2023-07-20T09:38:22;18.70;99.90
17146;DHT22;8688;54.444;18.444;2023-07-20T09:40:54;18.90;99.90
17146;DHT22;8688;54.444;18.444;2023-07-20T09:43:24;18.90;99.90
17146;DHT22;8688;54.444;18.444;2023-07-20T09:45:58;18.80;99.90
17146;DHT22;8688;54.444;18.444;2023-07-20T09:48:27;18.70;99.90
17146;DHT22;8688;54.444;18.444;2023-07-20T09:50:55;18.70;97.40
17146;DHT22;8688;54.444;18.444;2023-07-20T09:53:25;18.60;87.30
17146;DHT22;8688;54.444;18.444;2023-07-20T09:55:54;18.60;99.90
17146;DHT22;8688;54.444;18.444;2023-07-20T09:58:26;18.50;99.90
17146;DHT22;8688;54.444;18.444;2023-07-20T10:00:57;18.60;99.90
17146;DHT22;8688;54.444;18.444;2023-07-20T10:03:32;18.70;99.90
17146;DHT22;8688;54.444;18.444;2023-07-20T10:06:06;18.70;99.90
17146;DHT22;8688;54.444;18.444;2023-07-20T10:08:37;18.80;99.90
17146;DHT22;8688;54.444;18.444;2023-07-20T10:11:08;18.90;99.90
17146;DHT22;8688;54.444;18.444;2023-07-20T10:13:44;19.10;99.90
17146;DHT22;8688;54.444;18.444;2023-07-20T10:16:18;19.10;99.90
17146;DHT22;8688;54.444;18.444;2023-07-20T10:18:54;19.20;99.90
17146;DHT22;8688;54.444;18.444;2023-07-20T10:21:23;19.20;99.90
17146;DHT22;8688;54.444;18.444;2023-07-20T10:23:56;19.40;99.90
17146;DHT22;8688;54.444;18.444;2023-07-20T10:26:29;19.60;99.90
17146;DHT22;8688;54.444;18.444;2023-07-20T10:29:00;20.10;99.90
17146;DHT22;8688;54.444;18.444;2023-07-20T10:31:29;20.20;1.00
17146;DHT22;8688;54.444;18.444;2023-07-20T10:33:58;20.30;1.00
17146;DHT22;8688;54.444;18.444;2023-07-20T10:36:27;20.30;1.00
17146;DHT22;8688;54.444;18.444;2023-07-20T10:38:57;20.20;1.00
17146;DHT22;8688;54.444;18.444;2023-07-20T10:41:33;19.90;1.00
17146;DHT22;8688;54.444;18.444;2023-07-20T10:44:04;19.60;1.00
17146;DHT22;8688;54.444;18.444;2023-07-20T10:46:43;19.50;1.00
17146;DHT22;8688;54.444;18.444;2023-07-20T10:49:15;19.60;1.00
17146;DHT22;8688;54.444;18.444;2023-07-20T10:51:56;19.40;99.90
17146;DHT22;8688;54.444;18.444;2023-07-20T10:54:48;19.10;1.00
17146;DHT22;8688;54.444;18.444;2023-07-20T10:57:31;18.60;99.90
17146;DHT22;8688;54.444;18.444;2023-07-20T11:00:13;18.00;1.00
17146;DHT22;8688;54.444;18.444;2023-07-20T11:02:45;17.80;1.00
17146;DHT22;8688;54.444;18.444;2023-07-20T11:05:34;17.50;1.00
17146;DHT22;8688;54.444;18.444;2023-07-20T11:08:09;17.20;1.00
17146;DHT22;8688;54.444;18.444;2023-07-20T11:10:38;16.90;1.00
17146;DHT22;8688;54.444;18.444;2023-07-20T11:13:23;16.60;99.90
17146;DHT22;8688;54.444;18.444;2023-07-20T11:16:04;16.40;99.90
17146;DHT22;8688;54.444;18.444;2023-07-20T11:18:36;16.30;99.90
17146;DHT22;8688;54.444;18.444;2023-07-20T11:21:09;16.10;99.90
17146;DHT22;8688;54.444;18.444;2023-07-20T11:23:39;16.10;1.00
17146;DHT22;8688;54.444;18.444;2023-07-20T11:26:07;16.00;99.90
17146;DHT22;8688;54.444;18.444;2023-07-20T11:28:38;16.00;99.90
17146;DHT22;8688;54.444;18.444;2023-07-20T11:31:17;16.00;1.00
17146;DHT22;8688;54.444;18.444;2023-07-20T11:33:45;16.20;1.00
17146;DHT22;8688;54.444;18.444;2023-07-20T11:36:13;16.40;99.90
17146;DHT22;8688;54.444;18.444;2023-07-20T11:38:46;16.60;99.90
17146;DHT22;8688;54.444;18.444;2023-07-20T11:41:17;16.90;93.10
17146;DHT22;8688;54.444;18.444;2023-07-20T11:43:47;17.00;1.00
17146;DHT22;8688;54.444;18.444;2023-07-20T11:46:18;17.00;99.90
17146;DHT22;8688;54.444;18.444;2023-07-20T11:48:49;17.00;1.00
17146;DHT22;8688;54.444;18.444;2023-07-20T11:51:32;17.10;99.90
17146;DHT22;8688;54.444;18.444;2023-07-20T11:54:02;17.30;1.00
17146;DHT22;8688;54.444;18.444;2023-07-20T11:56:31;17.40;99.90
17146;DHT22;8688;54.444;18.444;2023-07-20T11:58:59;17.70;1.00
17146;DHT22;8688;54.444;18.444;2023-07-20T12:01:30;17.80;99.90
17146;DHT22;8688;54.444;18.444;2023-07-20T12:04:00;18.10;99.90
17146;DHT22;8688;54.444;18.444;2023-07-20T12:06:29;18.10;1.00
17146;DHT22;8688;54.444;18.444;2023-07-20T12:08:59;18.10;99.90
17146;DHT22;8688;54.444;18.444;2023-07-20T12:11:34;18.30;99.90
17146;DHT22;8688;54.444;18.444;2023-07-20T12:14:03;18.50;99.90
17146;DHT22;8688;54.444;18.444;2023-07-20T12:16:33;18.70;1.00
17146;DHT22;8688;54.444;18.444;2023-07-20T12:19:02;18.70;37.70
17146;DHT22;8688;54.444;18.444;2023-07-20T12:21:36;18.60;99.90
17146;DHT22;8688;54.444;18.444;2023-07-20T12:24:12;18.70;99.90
17146;DHT22;8688;54.444;18.444;2023-07-20T12:26:40;18.90;99.90
17146;DHT22;8688;54.444;18.444;2023-07-20T12:29:09;19.20;99.90
17146;DHT22;8688;54.444;18.444;2023-07-20T12:31:38;19.30;99.90
17146;DHT22;8688;54.444;18.444;2023-07-20T12:34:06;19.30;28.50
17146;DHT22;8688;54.444;18.444;2023-07-20T12:36:38;19.60;99.90
17146;DHT22;8688;54.444;18.444;2023-07-20T12:39:06;19.70;1.00
17146;DHT22;8688;54.444;18.444;2023-07-20T12:41:34;19.80;1.00
17146;DHT22;8688;54.444;18.444;2023-07-20T12:44:02;19.80;99.90
17146;DHT22;8688;54.444;18.444;2023-07-20T12:46:31;19.60;99.90
17146;DHT22;8688;54.444;18.444;2023-07-20T12:49:04;19.70;99.90
17146;DHT22;8688;54.444;18.444;2023-07-20T12:51:32;19.60;99.90
17146;DHT22;8688;54.444;18.444;2023-07-20T12:54:03;19.70;1.00
17146;DHT22;8688;54.444;18.444;2023-07-20T12:56:35;19.90;15.70
17146;DHT22;8688;54.444;18.444;2023-07-20T12:59:04;20.00;1.00
17146;DHT22;8688;54.444;18.444;2023-07-20T13:01:33;20.20;23.60
17146;DHT22;8688;54.444;18.444;2023-07-20T13:04:03;20.30;1.00
17146;DHT22;8688;54.444;18.444;2023-07-20T13:06:35;20.30;1.00
17146;DHT22;8688;54.444;18.444;2023-07-20T13:09:05;20.30;1.00
17146;DHT22;8688;54.444;18.444;2023-07-20T13:11:36;20.30;1.00
17146;DHT22;8688;54.444;18.444;2023-07-20T13:14:04;20.50;1.00
17146;DHT22;8688;54.444;18.444;2023-07-20T13:16:35;20.70;1.00
17146;DHT22;8688;54.444;18.444;2023-07-20T13:19:04;20.90;1.00
17146;DHT22;8688;54.444;18.444;2023-07-20T13:21:32;21.10;1.00
17146;DHT22;8688;54.444;18.444;2023-07-20T13:24:00;20.80;99.90
17146;DHT22;8688;54.444;18.444;2023-07-20T13:26:30;20.20;99.90
17146;DHT22;8688;54.444;18.444;2023-07-20T13:28:58;19.50;99.90
17146;DHT22;8688;54.444;18.444;2023-07-20T13:31:26;18.70;99.90
17146;DHT22;8688;54.444;18.444;2023-07-20T13:33:54;17.90;1.00
17146;DHT22;8688;54.444;18.444;2023-07-20T13:36:24;17.20;99.90
17146;DHT22;8688;54.444;18.444;2023-07-20T13:38:52;16.90;99.90
17146;DHT22;8688;54.444;18.444;2023-07-20T13:41:20;16.80;1.00
17146;DHT22;8688;54.444;18.444;2023-07-20T13:43:48;16.90;99.90
17146;DHT22;8688;54.444;18.444;2023-07-20T13:46:17;17.10;1.00
17146;DHT22;8688;54.444;18.444;2023-07-20T13:48:44;17.40;1.00
17146;DHT22;8688;54.444;18.444;2023-07-20T13:51:12;17.60;1.00
17146;DHT22;8688;54.444;18.444;2023-07-20T13:53:41;18.10;1.00
17146;DHT22;8688;54.444;18.444;2023-07-20T13:56:09;18.20;48.50
17146;DHT22;8688;54.444;18.444;2023-07-20T13:58:36;18.50;99.90
17146;DHT22;8688;54.444;18.444;2023-07-20T14:01:04;18.90;99.90
17146;DHT22;8688;54.444;18.444;2023-07-20T14:03:31;19.20;1.00
17146;DHT22;8688;54.444;18.444;2023-07-20T14:05:59;19.30;12.90
17146;DHT22;8688;54.444;18.444;2023-07-20T14:08:26;19.20;1.00
17146;DHT22;8688;54.444;18.444;2023-07-20T14:10:57;19.40;1.00
17146;DHT22;8688;54.444;18.444;2023-07-20T14:13:25;19.50;1.00
17146;DHT22;8688;54.444;18.444;2023-07-20T14:15:52;19.50;99.90
17146;DHT22;8688;54.444;18.444;2023-07-20T14:18:24;19.60;99.90
17146;DHT22;8688;54.444;18.444;2023-07-20T14:20:52;19.40;86.30
17146;DHT22;8688;54.444;18.444;2023-07-20T14:23:19;19.50;99.90
17146;DHT22;8688;54.444;18.444;2023-07-20T14:25:48;19.80;1.00
17146;DHT22;8688;54.444;18.444;2023-07-20T14:28:18;20.10;1.00
17146;DHT22;8688;54.444;18.444;2023-07-20T14:30:46;20.30;1.00
17146;DHT22;8688;54.444;18.444;2023-07-20T14:33:13;20.50;1.00
17146;DHT22;8688;54.444;18.444;2023-07-20T14:35:41;20.70;1.00
17146;DHT22;8688;54.444;18.444;2023-07-20T14:38:09;20.90;99.90
17146;DHT22;8688;54.444;18.444;2023-07-20T14:40:37;21.10;99.90
17146;DHT22;8688;54.444;18.444;2023-07-20T14:43:04;21.50;99.90
17146;DHT22;8688;54.444;18.444;2023-07-20T14:45:34;21.90;99.90
17146;DHT22;8688;54.444;18.444;2023-07-20T14:48:03;21.80;1.00
17146;DHT22;8688;54.444;18.444;2023-07-20T14:50:31;21.50;1.00
17146;DHT22;8688;54.444;18.444;2023-07-20T14:52:58;21.50;1.00
17146;DHT22;8688;54.444;18.444;2023-07-20T14:55:26;21.30;1.00
17146;DHT22;8688;54.444;18.444;2023-07-20T14:57:53;21.20;1.00
17146;DHT22;8688;54.444;18.444;2023-07-20T15:00:21;21.20;1.00
17146;DHT22;8688;54.444;18.444;2023-07-20T15:02:51;21.20;1.00
17146;DHT22;8688;54.444;18.444;2023-07-20T15:05:22;20.90;1.00
17146;DHT22;8688;54.444;18.444;2023-07-20T15:07:50;20.90;1.00
17146;DHT22;8688;54.444;18.444;2023-07-20T15:10:17;21.10;1.00
17146;DHT22;8688;54.444;18.444;2023-07-20T15:12:45;20.70;1.00
17146;DHT22;8688;54.444;18.444;2023-07-20T15:15:13;20.80;1.00
17146;DHT22;8688;54.444;18.444;2023-07-20T15:17:43;21.10;1.00
17146;DHT22;8688;54.444;18.444;2023-07-20T15:20:13;21.40;1.00
17146;DHT22;8688;54.444;18.444;2023-07-20T15:22:42;21.60;1.00
17146;DHT22;8688;54.444;18.444;2023-07-20T15:25:11;21.70;1.00
17146;DHT22;8688;54.444;18.444;2023-07-20T15:27:39;21.70;1.00
17146;DHT22;8688;54.444;18.444;2023-07-20T15:30:08;21.70;99.90
17146;DHT22;8688;54.444;18.444;2023-07-20T15:32:36;21.40;1.00
17146;DHT22;8688;54.444;18.444;2023-07-20T15:35:04;21.00;1.00
17146;DHT22;8688;54.444;18.444;2023-07-20T15:37:34;20.60;1.00
17146;DHT22;8688;54.444;18.444;2023-07-20T15:40:03;20.70;1.00
17146;DHT22;8688;54.444;18.444;2023-07-20T15:54:54;21.80;1.00
17146;DHT22;8688;54.444;18.444;2023-07-20T15:57:22;21.40;1.00
17146;DHT22;8688;54.444;18.444;2023-07-20T15:59:50;21.10;1.00
17146;DHT22;8688;54.444;18.444;2023-07-20T16:02:17;20.50;1.00
17146;DHT22;8688;54.444;18.444;2023-07-20T16:04:45;20.10;1.00